KBNL/BNL METAR and TAF weather

Enter ICAO airport designator
Station Type Date Time Source
KBNL METAR 2019/06/18 16:35 UTC NOAA

KBNL 181635Z AUTO 13005KT 10SM FEW065 FEW080 29/21 A3001 RMK AO2


Station Type Date Time Source
KBNL Decoded METAR 2019/06/18 16:35 UTC NOAA

Station name not available
Jun 18, 2019 - 12:35 PM EDT / 2019.06.18 1635 UTC
Wind: from the SE (130 degrees) at 6 MPH (5 KT):0
Visibility: 10 mile(s):0
Sky conditions: mostly clear
Temperature: 84 F (29 C)
Dew Point: 69 F (21 C)
Relative Humidity: 62%
Pressure (altimeter): 30.01 in. Hg (1016 hPa)
ob: KBNL 181635Z AUTO 13005KT 10SM FEW065 FEW080 29/21 A3001 RMK AO2
cycle: 16

Station Type Date Time Source
KBNL TAF UTC NOAA

Error!

Example: see airport list